sensor_id;sensor_type;location;lat;lon;timestamp;P1;durP1;ratioP1;P2;durP2;ratioP2
21927;SDS011;11128;51.096;17.190;2022-11-02T00:04:43;26.92;;;13.25;;
21927;SDS011;11128;51.096;17.190;2022-11-02T00:09:44;30.20;;;13.70;;
21927;SDS011;11128;51.096;17.190;2022-11-02T00:14:45;29.83;;;13.45;;
21927;SDS011;11128;51.096;17.190;2022-11-02T00:19:46;23.92;;;12.40;;
21927;SDS011;11128;51.096;17.190;2022-11-02T00:24:48;19.73;;;10.60;;
21927;SDS011;11128;51.096;17.190;2022-11-02T00:29:49;27.00;;;12.85;;
21927;SDS011;11128;51.096;17.190;2022-11-02T00:34:51;22.40;;;11.45;;
21927;SDS011;11128;51.096;17.190;2022-11-02T00:39:52;21.25;;;11.07;;
21927;SDS011;11128;51.096;17.190;2022-11-02T00:44:54;30.40;;;13.20;;
21927;SDS011;11128;51.096;17.190;2022-11-02T00:49:55;30.27;;;14.30;;
21927;SDS011;11128;51.096;17.190;2022-11-02T00:54:56;23.77;;;11.55;;
21927;SDS011;11128;51.096;17.190;2022-11-02T00:59:57;23.00;;;12.60;;
21927;SDS011;11128;51.096;17.190;2022-11-02T01:04:59;24.75;;;11.93;;
21927;SDS011;11128;51.096;17.190;2022-11-02T01:10:00;24.83;;;12.48;;
21927;SDS011;11128;51.096;17.190;2022-11-02T01:15:02;26.17;;;12.55;;
21927;SDS011;11128;51.096;17.190;2022-11-02T01:20:05;22.73;;;12.55;;
21927;SDS011;11128;51.096;17.190;2022-11-02T01:25:07;27.02;;;11.70;;
21927;SDS011;11128;51.096;17.190;2022-11-02T01:30:08;27.08;;;13.07;;
21927;SDS011;11128;51.096;17.190;2022-11-02T01:35:10;28.05;;;12.85;;
21927;SDS011;11128;51.096;17.190;2022-11-02T01:40:12;28.80;;;14.10;;
21927;SDS011;11128;51.096;17.190;2022-11-02T01:45:13;28.08;;;13.07;;
21927;SDS011;11128;51.096;17.190;2022-11-02T01:50:19;28.05;;;13.35;;
21927;SDS011;11128;51.096;17.190;2022-11-02T01:55:25;25.92;;;11.95;;
21927;SDS011;11128;51.096;17.190;2022-11-02T02:00:30;21.58;;;11.50;;
21927;SDS011;11128;51.096;17.190;2022-11-02T02:05:32;26.17;;;12.80;;
21927;SDS011;11128;51.096;17.190;2022-11-02T02:10:38;19.35;;;11.10;;
21927;SDS011;11128;51.096;17.190;2022-11-02T02:15:41;19.95;;;10.55;;
21927;SDS011;11128;51.096;17.190;2022-11-02T02:25:50;23.35;;;10.80;;
21927;SDS011;11128;51.096;17.190;2022-11-02T02:31:11;21.33;;;11.05;;
21927;SDS011;11128;51.096;17.190;2022-11-02T02:51:46;20.73;;;10.48;;
21927;SDS011;11128;51.096;17.190;2022-11-02T02:56:50;14.85;;;8.63;;
21927;SDS011;11128;51.096;17.190;2022-11-02T03:01:55;16.17;;;8.73;;
21927;SDS011;11128;51.096;17.190;2022-11-02T03:06:58;20.52;;;9.57;;
21927;SDS011;11128;51.096;17.190;2022-11-02T03:17:36;22.05;;;10.93;;
21927;SDS011;11128;51.096;17.190;2022-11-02T03:23:00;20.98;;;9.95;;
21927;SDS011;11128;51.096;17.190;2022-11-02T03:28:17;18.27;;;9.13;;
21927;SDS011;11128;51.096;17.190;2022-11-02T03:33:37;17.30;;;9.05;;
21927;SDS011;11128;51.096;17.190;2022-11-02T03:39:03;22.70;;;9.82;;
21927;SDS011;11128;51.096;17.190;2022-11-02T03:44:10;18.33;;;8.80;;
21927;SDS011;11128;51.096;17.190;2022-11-02T03:49:15;22.77;;;10.32;;
21927;SDS011;11128;51.096;17.190;2022-11-02T03:54:21;18.38;;;8.82;;
21927;SDS011;11128;51.096;17.190;2022-11-02T04:00:32;17.17;;;8.77;;
21927;SDS011;11128;51.096;17.190;2022-11-02T04:05:30;14.32;;;7.65;;
21927;SDS011;11128;51.096;17.190;2022-11-02T04:10:34;17.27;;;8.32;;
21927;SDS011;11128;51.096;17.190;2022-11-02T04:15:35;16.30;;;9.00;;
21927;SDS011;11128;51.096;17.190;2022-11-02T04:20:36;19.65;;;9.38;;
21927;SDS011;11128;51.096;17.190;2022-11-02T04:25:43;22.13;;;9.55;;
21927;SDS011;11128;51.096;17.190;2022-11-02T04:30:44;17.92;;;9.15;;
21927;SDS011;11128;51.096;17.190;2022-11-02T04:35:46;15.80;;;9.35;;
21927;SDS011;11128;51.096;17.190;2022-11-02T04:40:47;20.63;;;9.32;;
21927;SDS011;11128;51.096;17.190;2022-11-02T04:45:50;17.17;;;8.70;;
21927;SDS011;11128;51.096;17.190;2022-11-02T04:50:51;15.63;;;8.57;;
21927;SDS011;11128;51.096;17.190;2022-11-02T04:55:52;20.85;;;8.60;;
21927;SDS011;11128;51.096;17.190;2022-11-02T05:00:54;20.92;;;9.32;;
21927;SDS011;11128;51.096;17.190;2022-11-02T05:05:55;18.88;;;8.63;;
21927;SDS011;11128;51.096;17.190;2022-11-02T05:10:56;19.33;;;8.80;;
21927;SDS011;11128;51.096;17.190;2022-11-02T05:15:58;17.33;;;8.13;;
21927;SDS011;11128;51.096;17.190;2022-11-02T05:21:01;15.43;;;7.45;;
21927;SDS011;11128;51.096;17.190;2022-11-02T05:26:03;19.33;;;8.68;;
21927;SDS011;11128;51.096;17.190;2022-11-02T05:31:06;21.60;;;8.18;;
21927;SDS011;11128;51.096;17.190;2022-11-02T05:36:08;17.83;;;8.43;;
21927;SDS011;11128;51.096;17.190;2022-11-02T05:41:09;19.23;;;8.13;;
21927;SDS011;11128;51.096;17.190;2022-11-02T05:46:11;19.05;;;9.10;;
21927;SDS011;11128;51.096;17.190;2022-11-02T05:51:15;17.65;;;8.88;;
21927;SDS011;11128;51.096;17.190;2022-11-02T05:56:16;19.35;;;9.10;;
21927;SDS011;11128;51.096;17.190;2022-11-02T06:01:17;15.07;;;7.78;;
21927;SDS011;11128;51.096;17.190;2022-11-02T06:06:19;18.08;;;8.23;;
21927;SDS011;11128;51.096;17.190;2022-11-02T06:11:20;16.45;;;8.40;;
21927;SDS011;11128;51.096;17.190;2022-11-02T06:16:21;19.98;;;9.43;;
21927;SDS011;11128;51.096;17.190;2022-11-02T06:21:22;20.63;;;9.63;;
21927;SDS011;11128;51.096;17.190;2022-11-02T06:26:23;21.67;;;9.57;;
21927;SDS011;11128;51.096;17.190;2022-11-02T06:31:25;20.13;;;8.70;;
21927;SDS011;11128;51.096;17.190;2022-11-02T06:36:26;16.58;;;8.52;;
21927;SDS011;11128;51.096;17.190;2022-11-02T06:41:27;18.92;;;8.82;;
21927;SDS011;11128;51.096;17.190;2022-11-02T06:46:29;14.88;;;8.30;;
21927;SDS011;11128;51.096;17.190;2022-11-02T06:51:30;18.50;;;8.32;;
21927;SDS011;11128;51.096;17.190;2022-11-02T06:56:31;21.40;;;8.30;;
21927;SDS011;11128;51.096;17.190;2022-11-02T07:01:33;19.02;;;8.98;;
21927;SDS011;11128;51.096;17.190;2022-11-02T07:06:34;19.10;;;8.80;;
21927;SDS011;11128;51.096;17.190;2022-11-02T07:11:36;20.55;;;8.98;;
21927;SDS011;11128;51.096;17.190;2022-11-02T07:16:37;16.35;;;9.07;;
21927;SDS011;11128;51.096;17.190;2022-11-02T07:21:38;17.80;;;9.48;;
21927;SDS011;11128;51.096;17.190;2022-11-02T07:26:39;19.20;;;8.13;;
21927;SDS011;11128;51.096;17.190;2022-11-02T07:31:41;21.88;;;9.45;;
21927;SDS011;11128;51.096;17.190;2022-11-02T07:36:42;17.67;;;8.88;;
21927;SDS011;11128;51.096;17.190;2022-11-02T07:41:43;19.83;;;9.85;;
21927;SDS011;11128;51.096;17.190;2022-11-02T07:46:45;17.17;;;8.70;;
21927;SDS011;11128;51.096;17.190;2022-11-02T07:51:46;17.70;;;9.15;;
21927;SDS011;11128;51.096;17.190;2022-11-02T07:56:47;17.00;;;8.63;;
21927;SDS011;11128;51.096;17.190;2022-11-02T08:01:49;16.55;;;8.90;;
21927;SDS011;11128;51.096;17.190;2022-11-02T08:06:52;19.60;;;8.73;;
21927;SDS011;11128;51.096;17.190;2022-11-02T08:11:57;17.67;;;9.50;;
21927;SDS011;11128;51.096;17.190;2022-11-02T08:16:58;18.85;;;9.05;;
21927;SDS011;11128;51.096;17.190;2022-11-02T08:21:59;17.88;;;9.35;;
21927;SDS011;11128;51.096;17.190;2022-11-02T08:27:01;17.20;;;8.73;;
21927;SDS011;11128;51.096;17.190;2022-11-02T08:32:02;16.63;;;7.30;;
21927;SDS011;11128;51.096;17.190;2022-11-02T08:37:05;16.50;;;7.45;;
21927;SDS011;11128;51.096;17.190;2022-11-02T08:42:08;12.95;;;6.85;;
21927;SDS011;11128;51.096;17.190;2022-11-02T08:47:09;13.73;;;6.65;;
21927;SDS011;11128;51.096;17.190;2022-11-02T08:52:10;10.60;;;6.63;;
21927;SDS011;11128;51.096;17.190;2022-11-02T08:57:12;12.70;;;5.13;;
21927;SDS011;11128;51.096;17.190;2022-11-02T09:02:14;10.32;;;5.00;;
21927;SDS011;11128;51.096;17.190;2022-11-02T09:07:15;12.38;;;4.95;;
21927;SDS011;11128;51.096;17.190;2022-11-02T09:12:16;11.65;;;5.07;;
21927;SDS011;11128;51.096;17.190;2022-11-02T09:17:18;7.72;;;2.78;;
21927;SDS011;11128;51.096;17.190;2022-11-02T09:22:19;8.75;;;2.60;;
21927;SDS011;11128;51.096;17.190;2022-11-02T09:27:20;4.60;;;2.00;;
21927;SDS011;11128;51.096;17.190;2022-11-02T09:32:22;7.18;;;2.50;;
21927;SDS011;11128;51.096;17.190;2022-11-02T09:37:23;7.03;;;2.80;;
21927;SDS011;11128;51.096;17.190;2022-11-02T09:47:35;7.07;;;2.22;;
21927;SDS011;11128;51.096;17.190;2022-11-02T09:52:43;3.65;;;1.77;;
21927;SDS011;11128;51.096;17.190;2022-11-02T09:57:49;6.93;;;1.98;;
21927;SDS011;11128;51.096;17.190;2022-11-02T10:14:07;11.70;;;2.10;;
21927;SDS011;11128;51.096;17.190;2022-11-02T10:19:16;6.63;;;2.00;;
21927;SDS011;11128;51.096;17.190;2022-11-02T10:29:32;5.05;;;1.60;;
21927;SDS011;11128;51.096;17.190;2022-11-02T10:34:48;4.22;;;1.90;;
21927;SDS011;11128;51.096;17.190;2022-11-02T10:40:14;4.95;;;1.40;;
21927;SDS011;11128;51.096;17.190;2022-11-02T10:56:01;5.88;;;1.30;;
21927;SDS011;11128;51.096;17.190;2022-11-02T11:01:30;6.50;;;1.73;;
21927;SDS011;11128;51.096;17.190;2022-11-02T11:06:33;5.70;;;1.63;;
21927;SDS011;11128;51.096;17.190;2022-11-02T11:17:34;7.07;;;1.60;;
21927;SDS011;11128;51.096;17.190;2022-11-02T11:22:38;3.70;;;1.40;;
21927;SDS011;11128;51.096;17.190;2022-11-02T11:27:49;5.07;;;1.55;;
21927;SDS011;11128;51.096;17.190;2022-11-02T11:32:59;5.50;;;1.70;;
21927;SDS011;11128;51.096;17.190;2022-11-02T11:38:02;4.32;;;1.58;;
21927;SDS011;11128;51.096;17.190;2022-11-02T11:43:09;5.55;;;1.70;;
21927;SDS011;11128;51.096;17.190;2022-11-02T11:53:25;3.97;;;1.85;;
21927;SDS011;11128;51.096;17.190;2022-11-02T11:58:28;3.92;;;1.80;;
21927;SDS011;11128;51.096;17.190;2022-11-02T12:19:56;4.93;;;1.58;;
21927;SDS011;11128;51.096;17.190;2022-11-02T12:25:29;7.97;;;2.00;;
21927;SDS011;11128;51.096;17.190;2022-11-02T12:47:05;2.63;;;1.60;;
21927;SDS011;11128;51.096;17.190;2022-11-02T12:57:48;4.47;;;1.75;;
21927;SDS011;11128;51.096;17.190;2022-11-02T13:08:20;5.72;;;2.40;;
21927;SDS011;11128;51.096;17.190;2022-11-02T13:13:35;4.15;;;1.90;;
21927;SDS011;11128;51.096;17.190;2022-11-02T13:18:47;7.78;;;2.28;;
21927;SDS011;11128;51.096;17.190;2022-11-02T13:23:53;3.83;;;1.90;;
21927;SDS011;11128;51.096;17.190;2022-11-02T13:34:35;5.65;;;1.75;;
21927;SDS011;11128;51.096;17.190;2022-11-02T13:39:41;4.27;;;1.43;;
21927;SDS011;11128;51.096;17.190;2022-11-02T13:50:10;6.93;;;2.05;;
21927;SDS011;11128;51.096;17.190;2022-11-02T13:55:20;8.07;;;1.85;;
21927;SDS011;11128;51.096;17.190;2022-11-02T14:00:34;6.88;;;1.70;;
21927;SDS011;11128;51.096;17.190;2022-11-02T14:06:08;7.03;;;2.00;;
21927;SDS011;11128;51.096;17.190;2022-11-02T14:32:08;3.33;;;1.55;;
21927;SDS011;11128;51.096;17.190;2022-11-02T14:37:27;3.03;;;1.65;;
21927;SDS011;11128;51.096;17.190;2022-11-02T14:47:55;6.80;;;1.70;;
21927;SDS011;11128;51.096;17.190;2022-11-02T14:58:14;7.05;;;2.25;;
21927;SDS011;11128;51.096;17.190;2022-11-02T15:08:26;5.55;;;1.70;;
21927;SDS011;11128;51.096;17.190;2022-11-02T15:13:35;4.97;;;1.63;;
21927;SDS011;11128;51.096;17.190;2022-11-02T15:18:46;4.30;;;2.08;;
21927;SDS011;11128;51.096;17.190;2022-11-02T15:34:41;5.03;;;1.70;;
21927;SDS011;11128;51.096;17.190;2022-11-02T15:39:48;8.00;;;2.25;;
21927;SDS011;11128;51.096;17.190;2022-11-02T16:01:08;8.95;;;2.55;;
21927;SDS011;11128;51.096;17.190;2022-11-02T16:06:11;4.15;;;1.98;;
21927;SDS011;11128;51.096;17.190;2022-11-02T16:11:16;4.93;;;2.03;;
21927;SDS011;11128;51.096;17.190;2022-11-02T16:16:18;8.23;;;2.78;;
21927;SDS011;11128;51.096;17.190;2022-11-02T16:21:20;7.82;;;2.80;;
21927;SDS011;11128;51.096;17.190;2022-11-02T16:26:23;6.45;;;3.00;;
21927;SDS011;11128;51.096;17.190;2022-11-02T16:31:27;8.05;;;2.25;;
21927;SDS011;11128;51.096;17.190;2022-11-02T16:36:35;10.68;;;2.60;;
21927;SDS011;11128;51.096;17.190;2022-11-02T16:41:37;8.35;;;2.35;;
21927;SDS011;11128;51.096;17.190;2022-11-02T16:46:41;8.18;;;2.80;;
21927;SDS011;11128;51.096;17.190;2022-11-02T16:51:51;10.27;;;2.45;;
21927;SDS011;11128;51.096;17.190;2022-11-02T16:56:54;7.68;;;2.75;;
21927;SDS011;11128;51.096;17.190;2022-11-02T17:02:00;5.78;;;2.78;;
21927;SDS011;11128;51.096;17.190;2022-11-02T17:07:21;6.82;;;2.40;;
21927;SDS011;11128;51.096;17.190;2022-11-02T17:12:40;4.45;;;2.45;;
21927;SDS011;11128;51.096;17.190;2022-11-02T17:17:43;7.13;;;2.80;;
21927;SDS011;11128;51.096;17.190;2022-11-02T17:27:58;6.82;;;2.45;;
21927;SDS011;11128;51.096;17.190;2022-11-02T17:33:22;4.70;;;2.75;;
21927;SDS011;11128;51.096;17.190;2022-11-02T17:38:25;8.77;;;3.60;;
21927;SDS011;11128;51.096;17.190;2022-11-02T17:43:27;7.90;;;3.13;;
21927;SDS011;11128;51.096;17.190;2022-11-02T17:48:28;8.30;;;3.28;;
21927;SDS011;11128;51.096;17.190;2022-11-02T17:53:31;14.32;;;3.80;;
21927;SDS011;11128;51.096;17.190;2022-11-02T17:58:32;8.10;;;3.60;;
21927;SDS011;11128;51.096;17.190;2022-11-02T18:03:34;14.13;;;4.50;;
21927;SDS011;11128;51.096;17.190;2022-11-02T18:08:35;14.10;;;4.53;;
21927;SDS011;11128;51.096;17.190;2022-11-02T18:13:57;13.88;;;4.63;;
21927;SDS011;11128;51.096;17.190;2022-11-02T18:18:58;13.20;;;4.15;;
21927;SDS011;11128;51.096;17.190;2022-11-02T18:24:00;11.60;;;3.92;;
21927;SDS011;11128;51.096;17.190;2022-11-02T18:29:03;10.70;;;4.78;;
21927;SDS011;11128;51.096;17.190;2022-11-02T18:34:04;10.77;;;4.47;;
21927;SDS011;11128;51.096;17.190;2022-11-02T18:39:06;14.25;;;4.80;;
21927;SDS011;11128;51.096;17.190;2022-11-02T18:44:07;14.98;;;6.80;;
21927;SDS011;11128;51.096;17.190;2022-11-02T18:49:09;14.50;;;6.47;;
21927;SDS011;11128;51.096;17.190;2022-11-02T18:54:10;11.02;;;5.40;;
21927;SDS011;11128;51.096;17.190;2022-11-02T18:59:12;11.63;;;5.03;;
21927;SDS011;11128;51.096;17.190;2022-11-02T19:04:14;16.83;;;6.05;;
21927;SDS011;11128;51.096;17.190;2022-11-02T19:09:16;14.80;;;5.70;;
21927;SDS011;11128;51.096;17.190;2022-11-02T19:14:19;14.73;;;6.30;;
21927;SDS011;11128;51.096;17.190;2022-11-02T19:19:22;16.33;;;6.40;;
21927;SDS011;11128;51.096;17.190;2022-11-02T19:24:23;15.25;;;6.50;;
21927;SDS011;11128;51.096;17.190;2022-11-02T19:29:25;14.07;;;5.75;;
21927;SDS011;11128;51.096;17.190;2022-11-02T19:34:26;10.30;;;5.78;;
21927;SDS011;11128;51.096;17.190;2022-11-02T19:39:28;12.10;;;5.65;;
21927;SDS011;11128;51.096;17.190;2022-11-02T19:44:29;13.15;;;5.72;;
21927;SDS011;11128;51.096;17.190;2022-11-02T19:49:32;11.27;;;5.53;;
21927;SDS011;11128;51.096;17.190;2022-11-02T19:54:34;15.88;;;5.93;;
21927;SDS011;11128;51.096;17.190;2022-11-02T19:59:36;11.43;;;5.30;;
21927;SDS011;11128;51.096;17.190;2022-11-02T20:04:37;16.23;;;5.85;;
21927;SDS011;11128;51.096;17.190;2022-11-02T20:09:39;12.77;;;5.45;;
21927;SDS011;11128;51.096;17.190;2022-11-02T20:14:40;13.65;;;6.35;;
21927;SDS011;11128;51.096;17.190;2022-11-02T20:19:42;20.85;;;6.28;;
21927;SDS011;11128;51.096;17.190;2022-11-02T20:24:43;15.25;;;6.60;;
21927;SDS011;11128;51.096;17.190;2022-11-02T20:29:44;18.00;;;6.95;;
21927;SDS011;11128;51.096;17.190;2022-11-02T20:34:46;18.05;;;7.30;;
21927;SDS011;11128;51.096;17.190;2022-11-02T20:39:47;18.02;;;6.10;;
21927;SDS011;11128;51.096;17.190;2022-11-02T20:44:49;16.17;;;7.05;;
21927;SDS011;11128;51.096;17.190;2022-11-02T20:49:51;14.63;;;6.30;;
21927;SDS011;11128;51.096;17.190;2022-11-02T20:54:52;15.35;;;6.53;;
21927;SDS011;11128;51.096;17.190;2022-11-02T20:59:54;18.40;;;6.60;;
21927;SDS011;11128;51.096;17.190;2022-11-02T21:04:55;20.20;;;6.95;;
21927;SDS011;11128;51.096;17.190;2022-11-02T21:09:57;12.25;;;6.40;;
21927;SDS011;11128;51.096;17.190;2022-11-02T21:14:59;13.95;;;6.25;;
21927;SDS011;11128;51.096;17.190;2022-11-02T21:20:01;19.05;;;6.63;;
21927;SDS011;11128;51.096;17.190;2022-11-02T21:25:02;13.05;;;6.63;;
21927;SDS011;11128;51.096;17.190;2022-11-02T21:30:04;14.27;;;6.55;;
21927;SDS011;11128;51.096;17.190;2022-11-02T21:35:06;14.43;;;6.57;;
21927;SDS011;11128;51.096;17.190;2022-11-02T21:40:08;9.95;;;6.18;;
21927;SDS011;11128;51.096;17.190;2022-11-02T21:45:10;14.32;;;6.63;;
21927;SDS011;11128;51.096;17.190;2022-11-02T21:50:12;14.52;;;6.65;;
21927;SDS011;11128;51.096;17.190;2022-11-02T21:55:14;22.10;;;8.35;;
21927;SDS011;11128;51.096;17.190;2022-11-02T22:00:15;16.95;;;7.28;;
21927;SDS011;11128;51.096;17.190;2022-11-02T22:05:17;20.38;;;7.68;;
21927;SDS011;11128;51.096;17.190;2022-11-02T22:15:39;14.80;;;7.25;;
21927;SDS011;11128;51.096;17.190;2022-11-02T22:20:41;17.73;;;7.38;;
21927;SDS011;11128;51.096;17.190;2022-11-02T22:25:42;21.10;;;8.85;;
21927;SDS011;11128;51.096;17.190;2022-11-02T22:30:43;17.40;;;8.73;;
21927;SDS011;11128;51.096;17.190;2022-11-02T22:35:44;20.70;;;9.48;;
21927;SDS011;11128;51.096;17.190;2022-11-02T22:40:45;20.80;;;8.43;;
21927;SDS011;11128;51.096;17.190;2022-11-02T22:45:48;19.08;;;8.45;;
21927;SDS011;11128;51.096;17.190;2022-11-02T22:50:49;19.90;;;9.05;;
21927;SDS011;11128;51.096;17.190;2022-11-02T23:01:08;18.63;;;9.32;;
21927;SDS011;11128;51.096;17.190;2022-11-02T23:06:11;22.98;;;9.98;;
21927;SDS011;11128;51.096;17.190;2022-11-02T23:11:14;22.75;;;9.85;;
21927;SDS011;11128;51.096;17.190;2022-11-02T23:16:24;18.80;;;8.98;;
21927;SDS011;11128;51.096;17.190;2022-11-02T23:21:25;21.63;;;9.43;;
21927;SDS011;11128;51.096;17.190;2022-11-02T23:26:26;19.95;;;9.70;;
21927;SDS011;11128;51.096;17.190;2022-11-02T23:31:28;19.02;;;9.82;;
21927;SDS011;11128;51.096;17.190;2022-11-02T23:36:47;20.48;;;8.88;;
21927;SDS011;11128;51.096;17.190;2022-11-02T23:41:49;23.00;;;10.25;;
21927;SDS011;11128;51.096;17.190;2022-11-02T23:46:50;21.52;;;10.05;;
21927;SDS011;11128;51.096;17.190;2022-11-02T23:51:52;26.00;;;11.63;;
21927;SDS011;11128;51.096;17.190;2022-11-02T23:57:11;20.85;;;10.20;;
